createdAt,value
2023-05-22T05:26:07.867Z,99.90
2023-05-22T05:29:10.743Z,99.90
2023-05-22T05:35:17.141Z,99.90
2023-05-22T05:38:21.430Z,99.90
2023-05-22T05:41:24.235Z,99.90
2023-05-22T05:44:27.080Z,99.90
2023-05-22T05:47:30.176Z,99.90
2023-05-22T05:50:32.997Z,99.90
2023-05-22T05:53:37.613Z,99.90
2023-05-22T05:56:40.930Z,99.90
2023-05-22T05:59:43.767Z,99.90
2023-05-22T06:02:50.354Z,99.90
2023-05-22T06:05:54.276Z,99.90
2023-05-22T06:52:05.423Z,99.90
2023-05-22T10:52:25.146Z,95.00
2023-05-22T10:58:36.427Z,93.20
2023-05-22T11:01:40.774Z,93.00
2023-05-22T11:50:59.859Z,87.00
2023-05-22T11:54:02.902Z,88.00
2023-05-22T12:21:41.977Z,80.40
2023-05-22T12:55:23.861Z,77.30
2023-05-22T14:05:49.715Z,66.40
2023-05-22T14:08:52.533Z,69.70
2023-05-22T14:11:55.994Z,69.10
2023-05-22T14:18:02.127Z,67.60
2023-05-22T14:24:09.788Z,65.10
2023-05-22T14:27:12.603Z,66.10
2023-05-22T14:48:36.455Z,68.40
2023-05-22T14:54:44.332Z,67.20
2023-05-22T15:00:50.580Z,63.10
2023-05-22T15:03:53.405Z,59.30
2023-05-22T15:06:57.541Z,63.10
2023-05-22T15:10:00.834Z,61.90
2023-05-22T15:13:03.650Z,62.00
2023-05-22T15:19:10.250Z,64.60
2023-05-22T15:22:19.255Z,66.20
2023-05-22T15:25:22.998Z,66.30
2023-05-22T15:28:26.915Z,65.00
2023-05-22T15:31:30.287Z,67.10
2023-05-22T15:34:33.128Z,68.00
2023-05-22T15:37:38.305Z,69.20
2023-05-22T15:40:41.869Z,67.40
2023-05-22T15:46:47.924Z,68.60
2023-05-22T15:49:50.877Z,69.20
2023-05-22T15:52:55.097Z,67.30
2023-05-22T15:55:58.434Z,67.40
2023-05-22T15:59:01.340Z,68.20
2023-05-22T16:02:04.456Z,68.50
2023-05-22T16:05:07.511Z,68.20
2023-05-22T16:08:11.696Z,69.00
2023-05-22T16:11:14.590Z,69.00
2023-05-22T16:14:17.531Z,69.30
2023-05-22T16:23:28.459Z,68.60
2023-05-22T16:26:31.273Z,70.20
2023-05-22T16:32:37.399Z,69.20
2023-05-22T16:35:40.670Z,72.40
2023-05-22T16:38:45.163Z,71.50
2023-05-22T16:41:47.972Z,72.40
2023-05-22T16:44:50.843Z,74.80
2023-05-22T16:47:55.951Z,70.70
2023-05-22T16:50:59.041Z,69.80
2023-05-22T16:54:03.308Z,70.00
2023-05-22T17:00:11.840Z,72.80
2023-05-22T17:03:14.993Z,71.00
2023-05-22T17:06:20.871Z,73.10
2023-05-22T17:09:25.706Z,75.10
2023-05-22T17:12:28.539Z,76.50
2023-05-22T17:15:31.417Z,75.00
2023-05-22T17:18:34.265Z,70.00
2023-05-22T17:21:37.964Z,72.30
2023-05-22T17:24:42.339Z,74.50
2023-05-22T17:27:45.389Z,75.00
2023-05-22T17:30:48.352Z,73.50
2023-05-22T17:33:51.275Z,77.10
2023-05-22T17:36:54.083Z,78.00
2023-05-22T17:39:58.278Z,74.30
2023-05-22T17:43:02.426Z,76.80
2023-05-22T17:46:05.748Z,78.40
2023-05-22T17:49:08.625Z,81.60
2023-05-22T17:55:17.610Z,75.80
2023-05-22T17:58:21.098Z,79.70
2023-05-22T18:01:24.454Z,81.60
2023-05-22T18:10:35.808Z,81.90
2023-05-22T18:13:38.705Z,82.20
2023-05-22T18:16:41.570Z,82.90
2023-05-22T18:19:44.429Z,78.60
2023-05-22T18:22:47.312Z,83.10
2023-05-22T18:28:54.993Z,85.70
2023-05-22T18:31:57.857Z,83.50
2023-05-22T18:35:03.135Z,82.90
2023-05-22T18:38:06.411Z,79.70
2023-05-22T18:41:10.712Z,81.00
2023-05-22T18:44:13.992Z,81.00
2023-05-22T18:47:16.889Z,78.60
2023-05-22T18:53:27.346Z,83.70
2023-05-22T18:56:32.284Z,85.80
2023-05-22T18:59:35.156Z,86.70
2023-05-22T19:02:38.087Z,88.20
2023-05-22T19:05:41.112Z,87.20
2023-05-22T19:08:43.938Z,89.50
2023-05-22T19:11:48.668Z,90.50
2023-05-22T19:14:52.485Z,90.30
2023-05-22T19:20:58.938Z,90.50
2023-05-22T19:24:01.786Z,91.10
2023-05-22T19:27:06.390Z,91.50
2023-05-22T19:30:10.077Z,91.40
2023-05-22T19:33:14.760Z,91.60
2023-05-22T19:36:17.672Z,92.30
2023-05-22T19:39:20.492Z,91.90
2023-05-22T19:42:24.657Z,92.50
2023-05-22T19:45:27.632Z,91.90
2023-05-22T19:48:33.206Z,91.80
2023-05-22T19:51:37.207Z,91.80
2023-05-22T19:54:40.360Z,91.80
2023-05-22T19:57:45.423Z,91.80
2023-05-22T20:00:48.642Z,92.30
2023-05-22T20:03:51.888Z,91.90
2023-05-22T20:06:55.104Z,91.40
2023-05-22T20:09:57.951Z,92.40
2023-05-22T20:13:02.500Z,92.40
2023-05-22T20:16:11.738Z,92.20
2023-05-22T20:19:15.237Z,93.00
2023-05-22T20:22:18.177Z,93.40
2023-05-22T20:25:21.207Z,93.70
2023-05-22T20:28:26.242Z,94.30
2023-05-22T20:31:29.104Z,94.80
2023-05-22T20:34:32.046Z,94.60
2023-05-22T20:37:35.640Z,95.40
2023-05-22T20:40:38.446Z,95.30
2023-05-22T20:43:43.292Z,95.40
2023-05-22T20:46:46.443Z,95.50
2023-05-22T20:49:49.741Z,96.30
2023-05-22T20:52:52.770Z,96.30
2023-05-22T20:55:57.437Z,96.50
2023-05-22T20:59:01.664Z,96.90
2023-05-22T21:02:04.865Z,97.60
2023-05-22T21:05:08.273Z,98.00
2023-05-22T21:08:11.136Z,98.20
2023-05-22T21:11:14.035Z,98.50
2023-05-22T21:14:18.218Z,98.50
2023-05-22T21:17:21.134Z,99.30
2023-05-22T21:20:23.988Z,99.20
2023-05-22T21:23:26.947Z,99.80
2023-05-22T21:26:29.762Z,99.90
2023-05-22T21:29:34.138Z,99.90
2023-05-22T21:32:37.012Z,99.70
2023-05-22T21:35:39.843Z,99.90
2023-05-22T21:38:42.837Z,99.90
2023-05-22T21:41:46.054Z,99.90
2023-05-22T21:44:51.305Z,99.90
2023-05-22T21:47:54.193Z,99.90
2023-05-22T21:50:57.112Z,99.90
2023-05-22T21:54:00.012Z,99.90
2023-05-22T21:57:02.950Z,99.90
2023-05-22T22:00:08.448Z,99.90
2023-05-22T22:03:12.125Z,99.90
2023-05-22T22:06:15.054Z,99.90
2023-05-22T22:09:17.904Z,99.90
2023-05-22T22:12:20.913Z,99.90
2023-05-22T22:15:25.284Z,99.90
2023-05-22T22:18:28.105Z,99.90
2023-05-22T22:21:31.580Z,99.90
2023-05-22T22:24:34.441Z,99.90
2023-05-22T22:27:37.816Z,99.90
2023-05-22T22:30:42.111Z,99.90
2023-05-22T22:33:45.029Z,99.90
2023-05-22T22:36:48.310Z,99.90
2023-05-22T22:39:51.142Z,99.90
2023-05-22T22:42:54.090Z,99.90
2023-05-22T22:45:58.306Z,99.90
2023-05-22T22:49:01.813Z,99.90
2023-05-22T22:52:05.008Z,99.90
2023-05-22T22:55:11.041Z,99.90
2023-05-22T22:58:14.087Z,99.90
2023-05-22T23:01:18.345Z,99.90
2023-05-22T23:04:21.301Z,99.90
2023-05-22T23:07:24.208Z,99.90
2023-05-22T23:10:27.170Z,99.90
2023-05-22T23:13:30.294Z,99.90
2023-05-22T23:16:36.755Z,99.90
2023-05-22T23:19:39.585Z,99.90
2023-05-22T23:22:42.435Z,99.90
2023-05-22T23:25:45.509Z,99.90
2023-05-22T23:28:48.328Z,99.90
2023-05-22T23:31:52.694Z,99.90
2023-05-22T23:34:55.762Z,99.90
2023-05-22T23:37:58.590Z,99.90
2023-05-22T23:41:01.423Z,99.90
2023-05-22T23:44:04.295Z,99.90
2023-05-22T23:47:08.689Z,99.90
2023-05-22T23:50:12.334Z,99.90
2023-05-22T23:53:15.164Z,99.90
2023-05-22T23:56:17.969Z,99.90
2023-05-22T23:59:20.932Z,99.90
